createdAt,value
2019-02-05T00:01:00.169Z,977.11
2019-02-05T00:02:10.116Z,977.07
2019-02-05T00:03:20.065Z,977.07
2019-02-05T00:04:30.149Z,977.07
2019-02-05T00:05:40.098Z,977.04
2019-02-05T00:06:50.041Z,977.07
2019-02-05T00:07:59.992Z,977.07
2019-02-05T00:09:09.940Z,977.06
2019-02-05T00:10:19.973Z,977
2019-02-05T00:11:29.931Z,977.05
2019-02-05T00:12:39.868Z,977
2019-02-05T00:13:49.816Z,977.02
2019-02-05T00:14:59.746Z,976.98
2019-02-05T00:16:09.790Z,976.97
2019-02-05T00:17:19.768Z,976.95
2019-02-05T00:18:29.706Z,976.97
2019-02-05T00:19:39.646Z,976.96
2019-02-05T00:20:49.343Z,976.99
2019-02-05T00:21:59.382Z,976.99
2019-02-05T00:23:09.318Z,976.98
2019-02-05T00:24:19.284Z,977.02
2019-02-05T00:25:29.389Z,976.98
2019-02-05T00:26:39.719Z,976.94
2019-02-05T00:27:50.342Z,976.95
2019-02-05T00:29:01.310Z,976.92
2019-02-05T00:30:11.847Z,976.9
2019-02-05T00:31:22.528Z,976.94
2019-02-05T00:32:33.178Z,976.99
2019-02-05T00:33:43.765Z,976.96
2019-02-05T00:34:53.991Z,976.98
2019-02-05T00:36:04.271Z,976.91
2019-02-05T00:37:14.223Z,976.95
2019-02-05T00:38:24.157Z,976.94
2019-02-05T00:39:34.190Z,976.92
2019-02-05T00:40:43.912Z,976.95
2019-02-05T00:41:53.840Z,976.96
2019-02-05T00:43:03.787Z,976.95
2019-02-05T00:44:13.740Z,976.97
2019-02-05T00:45:23.725Z,976.99
2019-02-05T00:46:33.706Z,976.94
2019-02-05T00:47:43.650Z,976.97
2019-02-05T00:48:53.593Z,976.92
2019-02-05T00:50:03.552Z,976.9
2019-02-05T00:51:13.602Z,976.87
2019-02-05T00:52:23.564Z,976.89
2019-02-05T00:53:33.504Z,976.9
2019-02-05T00:54:43.441Z,976.85
2019-02-05T00:55:53.388Z,976.85
2019-02-05T00:57:03.427Z,976.85
2019-02-05T00:58:13.370Z,976.87
2019-02-05T00:59:23.312Z,976.86
2019-02-05T01:00:33.243Z,976.89
2019-02-05T01:01:43.191Z,976.85
2019-02-05T01:02:53.185Z,976.84
2019-02-05T01:04:03.154Z,976.82
2019-02-05T01:05:13.096Z,976.8
2019-02-05T01:06:23.052Z,976.83
2019-02-05T01:07:32.993Z,976.81
2019-02-05T01:08:42.996Z,976.82
2019-02-05T01:09:52.933Z,976.79
2019-02-05T01:11:03.114Z,976.82
2019-02-05T01:12:13.062Z,976.79
2019-02-05T01:13:23.079Z,976.75
2019-02-05T01:14:33.127Z,976.81
2019-02-05T01:15:43.071Z,976.83
2019-02-05T01:16:53.024Z,976.86
2019-02-05T01:18:02.964Z,976.84
2019-02-05T01:19:12.914Z,976.85
2019-02-05T01:20:22.859Z,976.85
2019-02-05T01:21:32.801Z,976.85
2019-02-05T01:22:42.744Z,976.85
2019-02-05T01:23:52.902Z,976.86
2019-02-05T01:25:02.589Z,976.84
2019-02-05T01:26:12.592Z,976.84
2019-02-05T01:27:34.562Z,976.82
2019-02-05T01:28:45.482Z,976.88
2019-02-05T01:29:56.100Z,976.84
2019-02-05T01:31:06.604Z,976.84
2019-02-05T01:32:16.838Z,976.87
2019-02-05T01:33:26.865Z,976.82
2019-02-05T01:34:36.814Z,976.89
2019-02-05T01:35:46.754Z,976.91
2019-02-05T01:36:56.900Z,976.94
2019-02-05T01:38:06.898Z,976.91
2019-02-05T01:39:16.849Z,976.91
2019-02-05T01:40:26.797Z,976.92
2019-02-05T01:41:36.793Z,976.93
2019-02-05T01:42:46.793Z,976.91
2019-02-05T01:43:56.761Z,976.93
2019-02-05T01:45:06.704Z,976.96
2019-02-05T01:46:16.651Z,976.94
2019-02-05T01:47:26.603Z,976.96
2019-02-05T01:48:36.623Z,976.97
2019-02-05T01:49:46.553Z,976.95
2019-02-05T01:50:56.479Z,976.96
2019-02-05T01:52:06.422Z,976.92
2019-02-05T01:53:16.371Z,976.97
2019-02-05T01:54:26.453Z,976.95
2019-02-05T01:55:36.394Z,976.97
2019-02-05T01:56:46.443Z,976.97
2019-02-05T01:57:56.381Z,976.95
2019-02-05T01:59:06.327Z,976.93
2019-02-05T02:00:16.273Z,976.95
2019-02-05T02:01:26.245Z,976.96
2019-02-05T02:02:36.215Z,976.95
2019-02-05T02:03:46.161Z,976.93
2019-02-05T02:04:56.102Z,976.9
2019-02-05T02:06:06.088Z,976.93
2019-02-05T02:07:16.026Z,976.92
2019-02-05T02:08:25.975Z,976.95
2019-02-05T02:09:35.907Z,976.95
2019-02-05T02:10:45.929Z,976.92
2019-02-05T02:11:56.072Z,976.92
2019-02-05T02:13:06.034Z,976.92
2019-02-05T02:14:16.038Z,976.88
2019-02-05T02:15:25.965Z,976.91
2019-02-05T02:16:35.905Z,976.88
2019-02-05T02:17:45.898Z,976.91
2019-02-05T02:18:55.846Z,976.88
2019-02-05T02:20:05.797Z,976.86
2019-02-05T02:21:15.743Z,976.91
2019-02-05T02:22:25.679Z,976.88
2019-02-05T02:23:35.838Z,976.89
2019-02-05T02:24:45.772Z,976.91
2019-02-05T02:25:55.701Z,976.9
2019-02-05T02:27:05.667Z,976.87
2019-02-05T02:28:15.610Z,976.9
2019-02-05T02:29:25.663Z,976.91
2019-02-05T02:30:35.634Z,976.92
2019-02-05T02:31:45.879Z,976.92
2019-02-05T02:32:56.148Z,976.91
2019-02-05T02:34:06.801Z,976.9
2019-02-05T02:35:17.302Z,976.94
2019-02-05T02:36:28.193Z,976.92
2019-02-05T02:37:38.527Z,976.88
2019-02-05T02:38:49.289Z,976.91
2019-02-05T02:39:59.829Z,976.88
2019-02-05T02:41:10.563Z,976.93
2019-02-05T02:42:20.658Z,976.92
2019-02-05T02:43:30.853Z,976.88
2019-02-05T02:44:40.821Z,976.95
2019-02-05T02:45:50.758Z,976.91
2019-02-05T02:47:00.751Z,976.9
2019-02-05T02:48:10.766Z,976.96
2019-02-05T02:49:20.721Z,976.93
2019-02-05T02:50:30.675Z,976.92
2019-02-05T02:51:40.643Z,976.92
2019-02-05T02:52:50.686Z,976.95
2019-02-05T02:54:00.665Z,976.94
2019-02-05T02:55:10.666Z,976.93
2019-02-05T02:56:20.656Z,976.91
2019-02-05T02:57:30.630Z,976.91
2019-02-05T02:58:40.605Z,976.93
2019-02-05T02:59:50.566Z,976.94
2019-02-05T03:01:00.976Z,976.94
2019-02-05T03:02:10.957Z,976.96
2019-02-05T03:03:20.924Z,977.03
2019-02-05T03:04:30.954Z,977.06
2019-02-05T03:05:40.939Z,977.05
2019-02-05T03:06:51.971Z,977.03
2019-02-05T03:08:01.959Z,977.02
2019-02-05T03:09:11.962Z,977.09
2019-02-05T03:10:22.032Z,977.03
2019-02-05T03:11:32.046Z,976.99
2019-02-05T03:12:42.064Z,977.02
2019-02-05T03:13:52.063Z,977.01
2019-02-05T03:15:02.041Z,977.01
2019-02-05T03:16:12.015Z,977.02
2019-02-05T03:17:21.996Z,976.98
2019-02-05T03:18:31.977Z,977.02
2019-02-05T03:19:41.959Z,977
2019-02-05T03:20:51.970Z,977.04
2019-02-05T03:22:02.089Z,977.04
2019-02-05T03:23:12.094Z,977.05
2019-02-05T03:24:22.071Z,977.09
2019-02-05T03:25:32.077Z,977.09
2019-02-05T03:26:42.057Z,977.09
2019-02-05T03:27:53.657Z,977.09
2019-02-05T03:29:04.189Z,977.1
2019-02-05T03:30:14.175Z,977.12
2019-02-05T03:31:24.235Z,977.14
2019-02-05T03:32:34.237Z,977.1
2019-02-05T03:33:44.406Z,977.09
2019-02-05T03:34:54.382Z,977.09
2019-02-05T03:36:04.358Z,977.11
2019-02-05T03:37:14.334Z,977.12
2019-02-05T03:38:24.301Z,977.13
2019-02-05T03:39:34.434Z,977.1
2019-02-05T03:40:44.411Z,977.12
2019-02-05T03:41:54.380Z,977.15
2019-02-05T03:43:04.359Z,977.12
2019-02-05T03:44:14.331Z,977.09
2019-02-05T03:45:24.398Z,977.14
2019-02-05T03:46:34.160Z,977.1
2019-02-05T03:47:44.239Z,977.1
2019-02-05T03:48:54.190Z,977.11
2019-02-05T03:50:04.010Z,977.15
2019-02-05T03:51:13.850Z,977.18
2019-02-05T03:52:23.834Z,977.18
2019-02-05T03:53:33.803Z,977.15
2019-02-05T03:54:43.792Z,977.2
2019-02-05T03:55:53.745Z,977.15
2019-02-05T03:57:03.822Z,977.2
2019-02-05T03:58:13.810Z,977.22
2019-02-05T03:59:23.816Z,977.23
2019-02-05T04:00:33.656Z,977.19
2019-02-05T04:01:43.630Z,977.19
2019-02-05T04:02:53.746Z,977.25
2019-02-05T04:04:03.709Z,977.24
2019-02-05T04:05:13.672Z,977.24
2019-02-05T04:06:23.748Z,977.25
2019-02-05T04:07:33.717Z,977.24
2019-02-05T04:08:43.704Z,977.21
2019-02-05T04:09:53.689Z,977.24
2019-02-05T04:11:03.710Z,977.25
2019-02-05T04:12:13.809Z,977.21
2019-02-05T04:13:24.034Z,977.2
2019-02-05T04:14:34.496Z,977.23
2019-02-05T04:15:45.112Z,977.22
2019-02-05T04:16:55.735Z,977.18
2019-02-05T04:18:06.672Z,977.21
2019-02-05T04:19:17.149Z,977.21
2019-02-05T04:20:27.837Z,977.2
2019-02-05T04:21:38.329Z,977.18
2019-02-05T04:22:48.587Z,977.19
2019-02-05T04:23:58.785Z,977.15
2019-02-05T04:25:08.510Z,977.17
2019-02-05T04:26:18.593Z,977.18
2019-02-05T04:27:28.308Z,977.19
2019-02-05T04:28:52.889Z,977.18
2019-02-05T04:30:02.852Z,977.2
2019-02-05T04:31:12.843Z,977.2
2019-02-05T04:32:22.576Z,977.22
2019-02-05T04:33:32.539Z,977.22
2019-02-05T04:34:42.490Z,977.18
2019-02-05T04:35:52.449Z,977.18
2019-02-05T04:37:02.533Z,977.21
2019-02-05T04:38:12.508Z,977.21
2019-02-05T04:39:22.467Z,977.19
2019-02-05T04:40:32.464Z,977.21
2019-02-05T04:41:42.431Z,977.21
2019-02-05T04:42:52.500Z,977.23
2019-02-05T04:44:02.481Z,977.24
2019-02-05T04:45:12.455Z,977.3
2019-02-05T04:46:34.061Z,977.29
2019-02-05T04:47:44.060Z,977.31
2019-02-05T04:48:54.156Z,977.29
2019-02-05T04:50:04.116Z,977.33
2019-02-05T04:51:14.105Z,977.28
2019-02-05T04:52:23.837Z,977.31
2019-02-05T04:53:33.861Z,977.31
2019-02-05T04:54:43.839Z,977.3
2019-02-05T04:55:53.812Z,977.31
2019-02-05T04:57:03.791Z,977.28
2019-02-05T04:58:13.864Z,977.29
2019-02-05T04:59:24.280Z,977.29
2019-02-05T05:00:34.892Z,977.29
2019-02-05T05:01:45.547Z,977.31
2019-02-05T05:02:55.993Z,977.26
2019-02-05T05:04:06.731Z,977.32
2019-02-05T05:05:17.684Z,977.36
2019-02-05T05:06:27.937Z,977.31
2019-02-05T05:07:38.390Z,977.34
2019-02-05T05:08:48.655Z,977.36
2019-02-05T05:09:58.782Z,977.32
2019-02-05T05:11:08.798Z,977.35
2019-02-05T05:12:18.757Z,977.32
2019-02-05T05:13:28.749Z,977.39
2019-02-05T05:14:38.747Z,977.42
2019-02-05T05:15:48.750Z,977.42
2019-02-05T05:16:58.805Z,977.38
2019-02-05T05:18:08.889Z,977.4
2019-02-05T05:19:20.822Z,977.39
2019-02-05T05:20:30.804Z,977.37
2019-02-05T05:21:40.773Z,977.36
2019-02-05T05:22:50.752Z,977.38
2019-02-05T05:24:00.749Z,977.42
2019-02-05T05:25:10.825Z,977.44
2019-02-05T05:26:20.791Z,977.45
2019-02-05T05:27:30.772Z,977.41
2019-02-05T05:28:40.817Z,977.45
2019-02-05T05:29:50.544Z,977.44
2019-02-05T05:31:00.789Z,977.44
2019-02-05T05:32:10.784Z,977.42
2019-02-05T05:33:20.758Z,977.46
2019-02-05T05:34:30.792Z,977.46
2019-02-05T05:35:44.433Z,977.46
2019-02-05T05:36:54.519Z,977.5
2019-02-05T05:38:04.528Z,977.53
2019-02-05T05:39:14.493Z,977.58
2019-02-05T05:40:24.561Z,977.53
2019-02-05T05:41:34.782Z,977.54
2019-02-05T05:42:44.771Z,977.57
2019-02-05T05:43:54.728Z,977.61
2019-02-05T05:45:04.684Z,977.58
2019-02-05T05:46:14.762Z,977.65
2019-02-05T05:47:24.523Z,977.62
2019-02-05T05:48:34.495Z,977.65
2019-02-05T05:49:44.467Z,977.66
2019-02-05T05:50:54.432Z,977.7
2019-02-05T05:52:04.464Z,977.71
2019-02-05T05:53:14.449Z,977.77
2019-02-05T05:54:24.414Z,977.74
2019-02-05T05:55:34.402Z,977.79
2019-02-05T05:56:44.395Z,977.75
2019-02-05T05:57:54.586Z,977.76
2019-02-05T05:59:04.326Z,977.77
2019-02-05T06:00:14.294Z,977.78
2019-02-05T06:01:24.270Z,977.78
2019-02-05T06:02:34.229Z,977.77
2019-02-05T06:03:47.748Z,977.77
2019-02-05T06:04:57.717Z,977.78
2019-02-05T06:06:07.902Z,977.81
2019-02-05T06:07:17.938Z,977.84
2019-02-05T06:08:28.006Z,977.81
2019-02-05T06:09:38.272Z,977.84
2019-02-05T06:10:48.240Z,977.82
2019-02-05T06:11:57.984Z,977.89
2019-02-05T06:13:07.972Z,977.89
2019-02-05T06:14:17.952Z,977.85
2019-02-05T06:15:28.026Z,977.89
2019-02-05T06:16:41.154Z,977.89
2019-02-05T06:17:51.139Z,977.89
2019-02-05T06:19:01.256Z,977.93
2019-02-05T06:20:11.209Z,977.97
2019-02-05T06:21:21.563Z,977.96
2019-02-05T06:22:31.892Z,977.98
2019-02-05T06:23:42.342Z,978.01
2019-02-05T06:24:52.944Z,978
2019-02-05T06:26:03.671Z,978.03
2019-02-05T06:27:14.358Z,978.04
2019-02-05T06:28:34.198Z,978.07
2019-02-05T06:29:44.628Z,978.07
2019-02-05T06:30:54.603Z,978.11
2019-02-05T06:32:04.577Z,978.12
2019-02-05T06:33:14.643Z,978.14
2019-02-05T06:34:26.473Z,978.15
2019-02-05T06:35:36.464Z,978.16
2019-02-05T06:36:46.432Z,978.13
2019-02-05T06:37:56.430Z,978.15
2019-02-05T06:39:06.509Z,978.15
2019-02-05T06:40:16.487Z,978.2
2019-02-05T06:41:26.476Z,978.2
2019-02-05T06:42:36.441Z,978.27
2019-02-05T06:43:46.491Z,978.24
2019-02-05T06:44:56.473Z,978.28
2019-02-05T06:46:06.455Z,978.36
2019-02-05T06:47:16.427Z,978.34
2019-02-05T06:48:26.410Z,978.36
2019-02-05T06:49:36.364Z,978.39
2019-02-05T06:50:46.448Z,978.41
2019-02-05T06:51:57.405Z,978.41
2019-02-05T06:53:07.364Z,978.45
2019-02-05T06:54:17.359Z,978.46
2019-02-05T06:55:27.338Z,978.5
2019-02-05T06:56:37.484Z,978.47
2019-02-05T06:57:50.093Z,978.5
2019-02-05T06:59:00.080Z,978.51
2019-02-05T07:00:10.045Z,978.55
2019-02-05T07:01:20.045Z,978.57
2019-02-05T07:02:30.152Z,978.55
2019-02-05T07:03:40.113Z,978.6
2019-02-05T07:04:50.088Z,978.63
2019-02-05T07:06:00.063Z,978.59
2019-02-05T07:07:10.028Z,978.59
2019-02-05T07:08:20.052Z,978.64
2019-02-05T07:09:30.020Z,978.64
2019-02-05T07:10:40.040Z,978.63
2019-02-05T07:11:50.067Z,978.63
2019-02-05T07:13:00.040Z,978.61
2019-02-05T07:14:10.055Z,978.64
2019-02-05T07:15:20.027Z,978.63
2019-02-05T07:16:29.981Z,978.58
2019-02-05T07:17:49.158Z,978.59
2019-02-05T07:18:59.700Z,978.7
2019-02-05T07:20:09.698Z,978.67
2019-02-05T07:21:19.654Z,978.72
2019-02-05T07:22:29.619Z,978.69
2019-02-05T07:23:39.644Z,978.75
2019-02-05T07:24:49.597Z,978.75
2019-02-05T07:25:59.668Z,978.78
2019-02-05T07:27:09.631Z,978.76
2019-02-05T07:28:20.085Z,978.78
2019-02-05T07:29:30.471Z,978.79
2019-02-05T07:30:41.058Z,978.82
2019-02-05T07:31:51.766Z,978.79
2019-02-05T07:33:02.549Z,978.82
2019-02-05T07:34:13.288Z,978.81
2019-02-05T07:35:26.714Z,978.83
2019-02-05T07:36:37.654Z,978.85
2019-02-05T07:37:48.210Z,978.87
2019-02-05T07:38:58.727Z,978.87
2019-02-05T07:40:09.305Z,978.88
2019-02-05T07:41:19.898Z,978.92
2019-02-05T07:42:30.351Z,978.9
2019-02-05T07:43:40.863Z,978.9
2019-02-05T07:44:51.435Z,978.94
2019-02-05T07:46:01.705Z,978.89
2019-02-05T07:47:11.930Z,978.98
2019-02-05T07:48:23.991Z,978.98
2019-02-05T07:49:35.987Z,978.96
2019-02-05T07:50:45.995Z,978.98
2019-02-05T07:51:55.999Z,979
2019-02-05T07:53:06.014Z,979.03
2019-02-05T07:54:16.018Z,979.07
2019-02-05T07:55:26.052Z,979.08
2019-02-05T07:56:36.052Z,979.07
2019-02-05T07:57:46.073Z,979.09
2019-02-05T07:58:56.093Z,979.13
2019-02-05T08:00:17.780Z,979.13
2019-02-05T08:01:27.826Z,979.15
2019-02-05T08:02:37.840Z,979.18
2019-02-05T08:03:47.891Z,979.15
2019-02-05T08:05:00.683Z,979.21
2019-02-05T08:06:10.995Z,979.24
2019-02-05T08:07:20.971Z,979.24
2019-02-05T08:08:30.978Z,979.25
2019-02-05T08:09:40.733Z,979.31
2019-02-05T08:10:50.725Z,979.29
2019-02-05T08:12:00.841Z,979.34
2019-02-05T08:13:10.899Z,979.35
2019-02-05T08:14:20.963Z,979.31
2019-02-05T08:15:30.965Z,979.38
2019-02-05T08:16:40.997Z,979.38
2019-02-05T08:17:53.185Z,979.41
2019-02-05T08:19:03.184Z,979.44
2019-02-05T08:20:13.178Z,979.46
2019-02-05T08:21:23.168Z,979.48
2019-02-05T08:22:33.184Z,979.49
2019-02-05T08:23:43.253Z,979.49
2019-02-05T08:24:53.267Z,979.53
2019-02-05T08:26:03.258Z,979.55
2019-02-05T08:27:13.268Z,979.59
2019-02-05T08:28:23.318Z,979.53
2019-02-05T08:29:43.971Z,979.6
2019-02-05T08:30:53.985Z,979.64
2019-02-05T08:32:03.996Z,979.67
2019-02-05T08:33:14.008Z,979.69
2019-02-05T08:34:24.099Z,979.71
2019-02-05T08:35:34.270Z,979.79
2019-02-05T08:36:44.264Z,979.8
2019-02-05T08:37:54.271Z,979.85
2019-02-05T08:39:04.373Z,979.83
2019-02-05T08:40:14.354Z,979.79
2019-02-05T08:41:24.442Z,979.88
2019-02-05T08:42:34.460Z,979.87
2019-02-05T08:43:44.449Z,979.88
2019-02-05T08:44:54.439Z,979.89
2019-02-05T08:46:04.451Z,979.91
2019-02-05T08:47:14.573Z,979.97
2019-02-05T08:48:24.553Z,979.95
2019-02-05T08:49:34.558Z,979.98
2019-02-05T08:50:44.602Z,980.02
2019-02-05T08:51:54.727Z,980.05
2019-02-05T08:53:04.769Z,980.01
2019-02-05T08:54:14.523Z,980.01
2019-02-05T08:55:24.530Z,980.04
2019-02-05T08:56:36.254Z,980.06
2019-02-05T08:57:46.247Z,980.05
2019-02-05T08:58:56.567Z,980.06
2019-02-05T09:00:06.833Z,980.06
2019-02-05T09:01:17.442Z,980.08
2019-02-05T09:02:28.076Z,980.11
2019-02-05T09:03:38.555Z,980.1
2019-02-05T09:04:49.357Z,980.11
2019-02-05T09:06:00.358Z,980.07
2019-02-05T09:07:11.176Z,980.1
2019-02-05T09:08:21.894Z,980.12
2019-02-05T09:09:32.441Z,980.18
2019-02-05T09:10:43.184Z,980.17
2019-02-05T09:11:53.766Z,980.18
2019-02-05T09:13:03.990Z,980.25
2019-02-05T09:14:14.297Z,980.24
2019-02-05T09:15:29.238Z,980.22
2019-02-05T09:16:39.818Z,980.26
2019-02-05T09:17:49.838Z,980.34
2019-02-05T09:18:59.848Z,980.29
2019-02-05T09:20:09.828Z,980.35
2019-02-05T09:21:19.832Z,980.41
2019-02-05T09:22:29.927Z,980.39
2019-02-05T09:23:39.907Z,980.34
2019-02-05T09:24:49.889Z,980.38
2019-02-05T09:25:59.882Z,980.4
2019-02-05T09:27:10.054Z,980.4
2019-02-05T09:28:20.114Z,980.44
2019-02-05T09:29:33.309Z,980.35
2019-02-05T09:30:43.685Z,980.36
2019-02-05T09:31:53.746Z,980.36
2019-02-05T09:33:03.765Z,980.34
2019-02-05T09:34:13.862Z,980.4
2019-02-05T09:35:23.870Z,980.39
2019-02-05T09:36:33.874Z,980.4
2019-02-05T09:37:43.868Z,980.44
2019-02-05T09:38:53.869Z,980.45
2019-02-05T09:40:03.901Z,980.45
2019-02-05T09:41:13.896Z,980.52
2019-02-05T09:42:23.905Z,980.51
2019-02-05T09:43:33.939Z,980.55
2019-02-05T09:44:43.966Z,980.53
2019-02-05T09:45:54.025Z,980.56
2019-02-05T09:47:04.112Z,980.61
2019-02-05T09:48:14.109Z,980.59
2019-02-05T09:49:24.090Z,980.62
2019-02-05T09:50:44.009Z,980.6
2019-02-05T09:51:54.680Z,980.63
2019-02-05T09:53:04.721Z,980.68
2019-02-05T09:54:14.729Z,980.71
2019-02-05T09:55:24.727Z,980.7
2019-02-05T09:56:36.654Z,980.76
2019-02-05T09:57:46.750Z,980.71
2019-02-05T09:58:56.752Z,980.74
2019-02-05T10:00:06.790Z,980.74
2019-02-05T10:01:16.802Z,980.77
2019-02-05T10:02:26.781Z,980.71
2019-02-05T10:03:36.868Z,980.77
2019-02-05T10:04:46.874Z,980.79
2019-02-05T10:05:56.872Z,980.84
2019-02-05T10:07:06.876Z,980.9
2019-02-05T10:08:16.853Z,980.91
2019-02-05T10:09:26.980Z,980.9
2019-02-05T10:10:37.081Z,980.88
2019-02-05T10:11:47.141Z,980.88
2019-02-05T10:12:57.127Z,980.91
2019-02-05T10:14:07.390Z,980.94
2019-02-05T10:15:17.463Z,981
2019-02-05T10:16:27.476Z,981
2019-02-05T10:17:37.489Z,981.03
2019-02-05T10:18:47.254Z,981.06
2019-02-05T10:19:57.260Z,981.13
2019-02-05T10:21:07.592Z,981.1
2019-02-05T10:22:17.882Z,981.13
2019-02-05T10:23:28.276Z,981.08
2019-02-05T10:24:38.952Z,981.13
2019-02-05T10:25:50.604Z,981.14
2019-02-05T10:27:01.443Z,981.12
2019-02-05T10:28:12.165Z,981.17
2019-02-05T10:29:22.920Z,981.17
2019-02-05T10:30:34.089Z,981.19
2019-02-05T10:31:44.687Z,981.21
2019-02-05T10:32:55.030Z,981.23
2019-02-05T10:34:05.348Z,981.25
2019-02-05T10:35:15.366Z,981.28
2019-02-05T10:36:25.381Z,981.29
2019-02-05T10:37:35.370Z,981.28
2019-02-05T10:38:45.398Z,981.36
2019-02-05T10:39:55.431Z,981.35
2019-02-05T10:41:05.592Z,981.36
2019-02-05T10:42:15.597Z,981.38
2019-02-05T10:43:25.581Z,981.4
2019-02-05T10:44:35.780Z,981.4
2019-02-05T10:45:45.755Z,981.42
2019-02-05T10:46:55.747Z,981.48
2019-02-05T10:48:05.733Z,981.47
2019-02-05T10:49:15.905Z,981.52
2019-02-05T10:50:25.914Z,981.49
2019-02-05T10:51:35.933Z,981.52
2019-02-05T10:52:45.951Z,981.5
2019-02-05T10:53:56.065Z,981.51
2019-02-05T10:55:06.073Z,981.55
2019-02-05T10:56:16.172Z,981.53
2019-02-05T10:57:26.219Z,981.57
2019-02-05T10:58:36.199Z,981.58
2019-02-05T10:59:46.197Z,981.61
2019-02-05T11:01:08.882Z,981.63
2019-02-05T11:02:18.979Z,981.62
2019-02-05T11:03:29.015Z,981.65
2019-02-05T11:04:39.011Z,981.66
2019-02-05T11:05:48.997Z,981.69
2019-02-05T11:06:59.140Z,981.64
2019-02-05T11:08:09.142Z,981.67
2019-02-05T11:09:19.174Z,981.67
2019-02-05T11:10:29.171Z,981.68
2019-02-05T11:11:39.197Z,981.67
2019-02-05T11:12:49.253Z,981.66
2019-02-05T11:13:59.250Z,981.72
2019-02-05T11:15:09.223Z,981.71
2019-02-05T11:16:19.196Z,981.75
2019-02-05T11:17:29.206Z,981.71
2019-02-05T11:18:39.229Z,981.74
2019-02-05T11:19:49.224Z,981.74
2019-02-05T11:20:59.222Z,981.76
2019-02-05T11:22:11.909Z,981.73
2019-02-05T11:23:21.667Z,981.74
2019-02-05T11:24:31.672Z,981.71
2019-02-05T11:25:41.663Z,981.68
2019-02-05T11:26:51.802Z,981.77
2019-02-05T11:28:01.851Z,981.72
2019-02-05T11:29:11.667Z,981.75
2019-02-05T11:30:21.731Z,981.7
2019-02-05T11:31:31.496Z,981.72
2019-02-05T11:32:41.506Z,981.69
2019-02-05T11:33:53.479Z,981.78
2019-02-05T11:35:03.478Z,981.77
2019-02-05T11:36:13.565Z,981.76
2019-02-05T11:37:23.579Z,981.81
2019-02-05T11:38:33.616Z,981.86
2019-02-05T11:39:43.615Z,981.8
2019-02-05T11:40:53.591Z,981.86
2019-02-05T11:42:03.713Z,981.85
2019-02-05T11:43:13.689Z,981.86
2019-02-05T11:44:23.695Z,981.84
2019-02-05T11:45:33.450Z,981.88
2019-02-05T11:46:43.451Z,981.88
2019-02-05T11:47:53.932Z,981.87
2019-02-05T11:49:04.376Z,981.87
2019-02-05T11:50:15.020Z,981.87
2019-02-05T11:51:25.784Z,981.88
2019-02-05T11:52:36.320Z,981.9
2019-02-05T11:53:47.441Z,981.84
2019-02-05T11:54:57.513Z,981.89
2019-02-05T11:56:08.541Z,981.89
2019-02-05T11:57:19.270Z,981.89
2019-02-05T11:58:30.662Z,981.88
2019-02-05T11:59:41.238Z,981.87
2019-02-05T12:00:51.564Z,981.93
2019-02-05T12:02:02.046Z,981.99
2019-02-05T12:03:12.205Z,981.96
2019-02-05T12:04:22.398Z,981.99
2019-02-05T12:05:32.478Z,982.03
2019-02-05T12:06:42.494Z,982.09
2019-02-05T12:07:52.485Z,982.08
2019-02-05T12:09:02.503Z,982.13
2019-02-05T12:10:12.499Z,982.16
2019-02-05T12:11:22.622Z,982.16
2019-02-05T12:12:32.667Z,982.16
2019-02-05T12:13:42.652Z,982.15
2019-02-05T12:14:52.691Z,982.16
2019-02-05T12:16:02.718Z,982.19
2019-02-05T12:17:12.772Z,982.22
2019-02-05T12:18:22.951Z,982.17
2019-02-05T12:19:32.946Z,982.25
2019-02-05T12:20:42.972Z,982.25
2019-02-05T12:21:52.991Z,982.28
2019-02-05T12:23:03.157Z,982.29
2019-02-05T12:24:13.145Z,982.38
2019-02-05T12:25:23.154Z,982.34
2019-02-05T12:26:33.178Z,982.35
2019-02-05T12:27:43.187Z,982.35
2019-02-05T12:28:53.278Z,982.35
2019-02-05T12:30:03.277Z,982.33
2019-02-05T12:31:13.240Z,982.36
2019-02-05T12:32:23.259Z,982.37
2019-02-05T12:33:33.263Z,982.39
2019-02-05T12:34:43.333Z,982.41
2019-02-05T12:35:53.292Z,982.41
2019-02-05T12:37:03.281Z,982.44
2019-02-05T12:38:13.028Z,982.5
2019-02-05T12:39:23.035Z,982.49
2019-02-05T12:40:33.035Z,982.51
2019-02-05T12:41:43.014Z,982.49
2019-02-05T12:42:52.995Z,982.54
2019-02-05T12:44:02.962Z,982.59
2019-02-05T12:45:13.035Z,982.57
2019-02-05T12:46:23.109Z,982.64
2019-02-05T12:47:33.100Z,982.65
2019-02-05T12:48:43.086Z,982.61
2019-02-05T12:49:53.054Z,982.64
2019-02-05T12:51:03.166Z,982.64
2019-02-05T12:52:13.256Z,982.64
2019-02-05T12:53:23.224Z,982.64
2019-02-05T12:54:33.206Z,982.66
2019-02-05T12:55:43.215Z,982.64
2019-02-05T12:56:53.175Z,982.68
2019-02-05T12:58:02.955Z,982.69
2019-02-05T12:59:12.908Z,982.72
2019-02-05T13:00:22.949Z,982.73
2019-02-05T13:01:32.889Z,982.81
2019-02-05T13:02:42.834Z,982.71
2019-02-05T13:03:55.129Z,982.7
2019-02-05T13:05:05.104Z,982.71
2019-02-05T13:06:15.044Z,982.72
2019-02-05T13:07:25.000Z,982.75
2019-02-05T13:08:34.947Z,982.79
2019-02-05T13:09:45.025Z,982.76
2019-02-05T13:10:54.715Z,982.83
2019-02-05T13:12:04.673Z,982.89
2019-02-05T13:13:14.619Z,982.87
2019-02-05T13:14:25.966Z,982.88
2019-02-05T13:15:36.005Z,982.84
2019-02-05T13:16:45.947Z,982.86
2019-02-05T13:17:55.900Z,982.9
2019-02-05T13:19:05.836Z,982.91
2019-02-05T13:20:15.780Z,982.9
2019-02-05T13:21:26.311Z,982.91
2019-02-05T13:22:36.388Z,982.95
2019-02-05T13:23:46.901Z,982.98
2019-02-05T13:24:57.338Z,982.94
2019-02-05T13:26:07.919Z,982.94
2019-02-05T13:27:18.846Z,983.03
2019-02-05T13:28:30.100Z,983.04
2019-02-05T13:29:40.443Z,983.03
2019-02-05T13:30:50.874Z,983.06
2019-02-05T13:32:10.899Z,983.12
2019-02-05T13:33:20.935Z,983.15
2019-02-05T13:34:30.900Z,983.18
2019-02-05T13:35:40.882Z,983.21
2019-02-05T13:36:50.839Z,983.29
2019-02-05T13:38:00.830Z,983.25
2019-02-05T13:39:10.901Z,983.3
2019-02-05T13:40:20.855Z,983.29
2019-02-05T13:41:30.818Z,983.33
2019-02-05T13:42:40.769Z,983.29
2019-02-05T13:43:50.818Z,983.37
2019-02-05T13:45:00.759Z,983.43
2019-02-05T13:46:10.720Z,983.39
2019-02-05T13:47:20.678Z,983.41
2019-02-05T13:48:32.451Z,983.41
2019-02-05T13:49:42.210Z,983.45
2019-02-05T13:50:52.164Z,983.47
2019-02-05T13:52:02.142Z,983.48
2019-02-05T13:53:12.091Z,983.51
2019-02-05T13:54:22.058Z,983.54
2019-02-05T13:55:32.197Z,983.58
2019-02-05T13:56:42.160Z,983.61
2019-02-05T13:57:52.102Z,983.65
2019-02-05T13:59:02.124Z,983.69
2019-02-05T14:00:12.082Z,983.74
2019-02-05T14:01:22.265Z,983.71
2019-02-05T14:02:32.213Z,983.72
2019-02-05T14:03:42.166Z,983.74
2019-02-05T14:04:52.115Z,983.77
2019-02-05T14:06:02.183Z,983.72
2019-02-05T14:07:12.418Z,983.75
2019-02-05T14:08:22.380Z,983.75
2019-02-05T14:09:32.330Z,983.79
2019-02-05T14:10:42.285Z,983.78
2019-02-05T14:11:52.237Z,983.82
2019-02-05T14:13:02.349Z,983.84
2019-02-05T14:14:12.304Z,983.84
2019-02-05T14:15:22.284Z,983.88
2019-02-05T14:16:32.243Z,983.87
2019-02-05T14:17:42.190Z,983.87
2019-02-05T14:18:55.034Z,983.91
2019-02-05T14:20:06.331Z,983.92
2019-02-05T14:21:17.219Z,983.96
2019-02-05T14:22:28.129Z,983.95
2019-02-05T14:23:39.062Z,984.01
2019-02-05T14:24:49.692Z,984.02
2019-02-05T14:25:59.954Z,984.06
2019-02-05T14:27:10.146Z,984.09
2019-02-05T14:28:20.299Z,984.1
2019-02-05T14:29:30.053Z,984.13
2019-02-05T14:30:40.049Z,984.2
2019-02-05T14:31:50.012Z,984.2
2019-02-05T14:32:59.967Z,984.21
2019-02-05T14:34:09.918Z,984.27
2019-02-05T14:35:19.859Z,984.29
2019-02-05T14:36:29.900Z,984.25
2019-02-05T14:37:39.860Z,984.29
2019-02-05T14:38:49.812Z,984.36
2019-02-05T14:39:59.755Z,984.37
2019-02-05T14:41:09.714Z,984.35